sensor_id;sensor_type;location;lat;lon;timestamp;P1;durP1;ratioP1;P2;durP2;ratioP2
56413;SDS011;42318;48.452;19.526;2023-11-21T00:00:30;5.65;;;3.50;;
56413;SDS011;42318;48.452;19.526;2023-11-21T00:03:50;5.63;;;4.13;;
56413;SDS011;42318;48.452;19.526;2023-11-21T00:06:51;4.93;;;3.45;;
56413;SDS011;42318;48.452;19.526;2023-11-21T00:09:51;5.43;;;4.00;;
56413;SDS011;42318;48.452;19.526;2023-11-21T00:12:52;6.25;;;3.88;;
56413;SDS011;42318;48.452;19.526;2023-11-21T00:15:55;6.07;;;3.92;;
56413;SDS011;42318;48.452;19.526;2023-11-21T00:18:56;5.03;;;3.83;;
56413;SDS011;42318;48.452;19.526;2023-11-21T00:21:56;5.75;;;3.75;;
56413;SDS011;42318;48.452;19.526;2023-11-21T00:24:58;5.78;;;3.70;;
56413;SDS011;42318;48.452;19.526;2023-11-21T00:27:58;5.55;;;4.20;;
56413;SDS011;42318;48.452;19.526;2023-11-21T00:31:01;4.70;;;3.63;;
56413;SDS011;42318;48.452;19.526;2023-11-21T00:34:02;7.60;;;3.95;;
56413;SDS011;42318;48.452;19.526;2023-11-21T00:37:06;6.53;;;4.28;;
56413;SDS011;42318;48.452;19.526;2023-11-21T00:40:08;5.05;;;3.97;;
56413;SDS011;42318;48.452;19.526;2023-11-21T00:43:09;6.53;;;3.78;;
56413;SDS011;42318;48.452;19.526;2023-11-21T00:46:10;4.72;;;3.55;;
56413;SDS011;42318;48.452;19.526;2023-11-21T00:49:11;5.97;;;3.92;;
56413;SDS011;42318;48.452;19.526;2023-11-21T00:52:11;6.22;;;3.92;;
56413;SDS011;42318;48.452;19.526;2023-11-21T00:55:12;4.97;;;3.38;;
56413;SDS011;42318;48.452;19.526;2023-11-21T00:58:13;5.47;;;3.75;;
56413;SDS011;42318;48.452;19.526;2023-11-21T01:01:14;5.68;;;3.55;;
56413;SDS011;42318;48.452;19.526;2023-11-21T01:04:14;5.82;;;3.88;;
56413;SDS011;42318;48.452;19.526;2023-11-21T01:07:15;6.35;;;3.75;;
56413;SDS011;42318;48.452;19.526;2023-11-21T01:10:15;4.45;;;3.30;;
56413;SDS011;42318;48.452;19.526;2023-11-21T01:13:17;5.97;;;4.03;;
56413;SDS011;42318;48.452;19.526;2023-11-21T01:16:18;4.85;;;3.83;;
56413;SDS011;42318;48.452;19.526;2023-11-21T01:19:19;4.28;;;3.40;;
56413;SDS011;42318;48.452;19.526;2023-11-21T01:22:19;6.38;;;3.70;;
56413;SDS011;42318;48.452;19.526;2023-11-21T01:25:26;4.15;;;3.20;;
56413;SDS011;42318;48.452;19.526;2023-11-21T01:28:26;6.10;;;4.18;;
56413;SDS011;42318;48.452;19.526;2023-11-21T01:31:27;5.20;;;3.25;;
56413;SDS011;42318;48.452;19.526;2023-11-21T01:34:29;4.95;;;3.47;;
56413;SDS011;42318;48.452;19.526;2023-11-21T01:37:31;4.97;;;3.53;;
56413;SDS011;42318;48.452;19.526;2023-11-21T01:40:31;5.60;;;3.58;;
56413;SDS011;42318;48.452;19.526;2023-11-21T01:43:32;4.32;;;3.38;;
56413;SDS011;42318;48.452;19.526;2023-11-21T01:46:33;4.25;;;3.03;;
56413;SDS011;42318;48.452;19.526;2023-11-21T01:49:33;6.47;;;3.63;;
56413;SDS011;42318;48.452;19.526;2023-11-21T01:52:35;5.15;;;3.85;;
56413;SDS011;42318;48.452;19.526;2023-11-21T01:55:36;4.45;;;3.20;;
56413;SDS011;42318;48.452;19.526;2023-11-21T01:58:36;4.22;;;3.20;;
56413;SDS011;42318;48.452;19.526;2023-11-21T02:01:37;4.22;;;2.92;;
56413;SDS011;42318;48.452;19.526;2023-11-21T02:04:38;4.85;;;3.35;;
56413;SDS011;42318;48.452;19.526;2023-11-21T02:07:39;6.30;;;4.10;;
56413;SDS011;42318;48.452;19.526;2023-11-21T02:10:40;4.35;;;3.28;;
56413;SDS011;42318;48.452;19.526;2023-11-21T02:13:41;4.40;;;3.15;;
56413;SDS011;42318;48.452;19.526;2023-11-21T02:16:45;4.60;;;3.50;;
56413;SDS011;42318;48.452;19.526;2023-11-21T02:19:49;4.53;;;3.20;;
56413;SDS011;42318;48.452;19.526;2023-11-21T02:22:54;4.93;;;3.53;;
56413;SDS011;42318;48.452;19.526;2023-11-21T02:25:59;5.03;;;3.22;;
56413;SDS011;42318;48.452;19.526;2023-11-21T02:29:04;4.55;;;3.10;;
56413;SDS011;42318;48.452;19.526;2023-11-21T02:32:05;5.07;;;3.80;;
56413;SDS011;42318;48.452;19.526;2023-11-21T02:35:06;4.70;;;3.35;;
56413;SDS011;42318;48.452;19.526;2023-11-21T02:38:08;4.30;;;3.30;;
56413;SDS011;42318;48.452;19.526;2023-11-21T02:41:09;4.75;;;3.33;;
56413;SDS011;42318;48.452;19.526;2023-11-21T02:44:09;5.57;;;3.28;;
56413;SDS011;42318;48.452;19.526;2023-11-21T02:47:10;3.88;;;3.03;;
56413;SDS011;42318;48.452;19.526;2023-11-21T02:50:11;5.32;;;3.58;;
56413;SDS011;42318;48.452;19.526;2023-11-21T02:53:12;4.63;;;3.20;;
56413;SDS011;42318;48.452;19.526;2023-11-21T02:56:13;4.20;;;3.08;;
56413;SDS011;42318;48.452;19.526;2023-11-21T02:59:13;5.65;;;3.67;;
56413;SDS011;42318;48.452;19.526;2023-11-21T03:02:14;4.32;;;3.03;;
56413;SDS011;42318;48.452;19.526;2023-11-21T03:05:15;3.75;;;2.78;;
56413;SDS011;42318;48.452;19.526;2023-11-21T03:08:16;5.60;;;3.20;;
56413;SDS011;42318;48.452;19.526;2023-11-21T03:11:16;5.45;;;3.22;;
56413;SDS011;42318;48.452;19.526;2023-11-21T03:14:17;3.65;;;2.90;;
56413;SDS011;42318;48.452;19.526;2023-11-21T03:17:18;4.03;;;3.00;;
56413;SDS011;42318;48.452;19.526;2023-11-21T03:20:19;4.45;;;2.92;;
56413;SDS011;42318;48.452;19.526;2023-11-21T03:23:19;4.95;;;3.75;;
56413;SDS011;42318;48.452;19.526;2023-11-21T03:26:20;4.15;;;2.88;;
56413;SDS011;42318;48.452;19.526;2023-11-21T03:29:20;4.97;;;2.88;;
56413;SDS011;42318;48.452;19.526;2023-11-21T03:32:21;4.68;;;3.30;;
56413;SDS011;42318;48.452;19.526;2023-11-21T03:35:22;4.05;;;2.83;;
56413;SDS011;42318;48.452;19.526;2023-11-21T03:38:22;4.53;;;3.15;;
56413;SDS011;42318;48.452;19.526;2023-11-21T03:41:23;4.93;;;3.05;;
56413;SDS011;42318;48.452;19.526;2023-11-21T03:44:24;3.70;;;2.78;;
56413;SDS011;42318;48.452;19.526;2023-11-21T03:47:25;4.03;;;2.80;;
56413;SDS011;42318;48.452;19.526;2023-11-21T03:50:28;5.40;;;2.80;;
56413;SDS011;42318;48.452;19.526;2023-11-21T03:53:29;4.05;;;2.38;;
56413;SDS011;42318;48.452;19.526;2023-11-21T03:56:30;3.90;;;2.40;;
56413;SDS011;42318;48.452;19.526;2023-11-21T03:59:30;3.80;;;2.40;;
56413;SDS011;42318;48.452;19.526;2023-11-21T04:02:31;3.63;;;2.42;;
56413;SDS011;42318;48.452;19.526;2023-11-21T04:05:31;3.63;;;2.70;;
56413;SDS011;42318;48.452;19.526;2023-11-21T04:08:32;4.25;;;2.38;;
56413;SDS011;42318;48.452;19.526;2023-11-21T04:11:33;3.50;;;2.53;;
56413;SDS011;42318;48.452;19.526;2023-11-21T04:14:34;3.83;;;2.55;;
56413;SDS011;42318;48.452;19.526;2023-11-21T04:17:35;4.28;;;2.67;;
56413;SDS011;42318;48.452;19.526;2023-11-21T04:20:36;4.55;;;2.53;;
56413;SDS011;42318;48.452;19.526;2023-11-21T04:23:37;3.08;;;2.42;;
56413;SDS011;42318;48.452;19.526;2023-11-21T04:26:38;4.50;;;2.83;;
56413;SDS011;42318;48.452;19.526;2023-11-21T04:29:38;4.90;;;2.72;;
56413;SDS011;42318;48.452;19.526;2023-11-21T04:32:39;4.15;;;2.55;;
56413;SDS011;42318;48.452;19.526;2023-11-21T04:35:39;3.88;;;2.80;;
56413;SDS011;42318;48.452;19.526;2023-11-21T04:38:40;3.08;;;2.25;;
56413;SDS011;42318;48.452;19.526;2023-11-21T04:41:41;3.78;;;2.50;;
56413;SDS011;42318;48.452;19.526;2023-11-21T04:44:41;4.68;;;2.88;;
56413;SDS011;42318;48.452;19.526;2023-11-21T04:47:44;4.45;;;2.60;;
56413;SDS011;42318;48.452;19.526;2023-11-21T04:50:45;3.45;;;2.60;;
56413;SDS011;42318;48.452;19.526;2023-11-21T04:53:46;4.15;;;2.72;;
56413;SDS011;42318;48.452;19.526;2023-11-21T04:56:47;3.63;;;2.67;;
56413;SDS011;42318;48.452;19.526;2023-11-21T04:59:48;2.75;;;2.17;;
56413;SDS011;42318;48.452;19.526;2023-11-21T05:02:49;3.28;;;2.17;;
56413;SDS011;42318;48.452;19.526;2023-11-21T05:05:49;3.55;;;2.38;;
56413;SDS011;42318;48.452;19.526;2023-11-21T05:08:50;3.65;;;2.60;;
56413;SDS011;42318;48.452;19.526;2023-11-21T05:11:51;4.18;;;2.42;;
56413;SDS011;42318;48.452;19.526;2023-11-21T05:14:51;2.92;;;2.22;;
56413;SDS011;42318;48.452;19.526;2023-11-21T05:17:52;3.42;;;2.55;;
56413;SDS011;42318;48.452;19.526;2023-11-21T05:20:54;3.85;;;2.88;;
56413;SDS011;42318;48.452;19.526;2023-11-21T05:23:54;3.58;;;2.50;;
56413;SDS011;42318;48.452;19.526;2023-11-21T05:26:55;4.10;;;2.70;;
56413;SDS011;42318;48.452;19.526;2023-11-21T05:29:56;3.30;;;2.13;;
56413;SDS011;42318;48.452;19.526;2023-11-21T05:32:57;4.00;;;2.33;;
56413;SDS011;42318;48.452;19.526;2023-11-21T05:35:58;3.28;;;2.50;;
56413;SDS011;42318;48.452;19.526;2023-11-21T05:38:58;2.70;;;2.30;;
56413;SDS011;42318;48.452;19.526;2023-11-21T05:41:59;3.42;;;2.10;;
56413;SDS011;42318;48.452;19.526;2023-11-21T05:45:00;3.45;;;2.35;;
56413;SDS011;42318;48.452;19.526;2023-11-21T05:48:10;3.20;;;2.28;;
56413;SDS011;42318;48.452;19.526;2023-11-21T05:51:11;3.42;;;2.45;;
56413;SDS011;42318;48.452;19.526;2023-11-21T05:54:14;3.80;;;2.65;;
56413;SDS011;42318;48.452;19.526;2023-11-21T05:57:14;3.55;;;2.13;;
56413;SDS011;42318;48.452;19.526;2023-11-21T06:00:15;3.92;;;2.35;;
56413;SDS011;42318;48.452;19.526;2023-11-21T06:03:20;4.47;;;2.78;;
56413;SDS011;42318;48.452;19.526;2023-11-21T06:06:21;3.67;;;2.38;;
56413;SDS011;42318;48.452;19.526;2023-11-21T06:09:26;2.97;;;1.88;;
56413;SDS011;42318;48.452;19.526;2023-11-21T06:12:26;3.95;;;2.63;;
56413;SDS011;42318;48.452;19.526;2023-11-21T06:15:27;3.33;;;2.35;;
56413;SDS011;42318;48.452;19.526;2023-11-21T06:18:27;3.38;;;2.17;;
56413;SDS011;42318;48.452;19.526;2023-11-21T06:21:28;3.33;;;2.47;;
56413;SDS011;42318;48.452;19.526;2023-11-21T06:24:29;2.67;;;2.15;;
56413;SDS011;42318;48.452;19.526;2023-11-21T06:27:29;3.10;;;2.20;;
56413;SDS011;42318;48.452;19.526;2023-11-21T06:30:31;3.60;;;2.13;;
56413;SDS011;42318;48.452;19.526;2023-11-21T06:33:32;4.03;;;2.47;;
56413;SDS011;42318;48.452;19.526;2023-11-21T06:36:32;3.65;;;2.22;;
56413;SDS011;42318;48.452;19.526;2023-11-21T06:39:33;3.83;;;2.33;;
56413;SDS011;42318;48.452;19.526;2023-11-21T06:42:34;3.67;;;2.15;;
56413;SDS011;42318;48.452;19.526;2023-11-21T06:45:34;2.83;;;2.05;;
56413;SDS011;42318;48.452;19.526;2023-11-21T06:48:35;3.83;;;2.63;;
56413;SDS011;42318;48.452;19.526;2023-11-21T06:51:38;3.38;;;2.30;;
56413;SDS011;42318;48.452;19.526;2023-11-21T06:54:39;3.47;;;2.58;;
56413;SDS011;42318;48.452;19.526;2023-11-21T06:57:40;2.70;;;2.00;;
56413;SDS011;42318;48.452;19.526;2023-11-21T07:00:40;4.97;;;2.50;;
56413;SDS011;42318;48.452;19.526;2023-11-21T07:03:46;4.25;;;2.33;;
56413;SDS011;42318;48.452;19.526;2023-11-21T07:06:46;4.35;;;2.22;;
56413;SDS011;42318;48.452;19.526;2023-11-21T07:09:47;4.15;;;2.53;;
56413;SDS011;42318;48.452;19.526;2023-11-21T07:12:49;5.05;;;2.53;;
56413;SDS011;42318;48.452;19.526;2023-11-21T07:15:51;5.28;;;2.58;;
56413;SDS011;42318;48.452;19.526;2023-11-21T07:18:52;4.95;;;2.35;;
56413;SDS011;42318;48.452;19.526;2023-11-21T07:21:55;3.70;;;2.42;;
56413;SDS011;42318;48.452;19.526;2023-11-21T07:24:55;3.58;;;2.33;;
56413;SDS011;42318;48.452;19.526;2023-11-21T07:27:59;5.28;;;2.80;;
56413;SDS011;42318;48.452;19.526;2023-11-21T07:31:01;4.72;;;2.45;;
56413;SDS011;42318;48.452;19.526;2023-11-21T07:34:02;6.03;;;2.90;;
56413;SDS011;42318;48.452;19.526;2023-11-21T07:37:03;4.32;;;2.75;;
56413;SDS011;42318;48.452;19.526;2023-11-21T07:40:04;4.18;;;2.80;;
56413;SDS011;42318;48.452;19.526;2023-11-21T07:43:05;5.10;;;2.90;;
56413;SDS011;42318;48.452;19.526;2023-11-21T07:46:06;5.25;;;3.10;;
56413;SDS011;42318;48.452;19.526;2023-11-21T07:49:06;3.88;;;2.90;;
56413;SDS011;42318;48.452;19.526;2023-11-21T07:52:07;5.50;;;2.95;;
56413;SDS011;42318;48.452;19.526;2023-11-21T07:55:08;4.65;;;3.20;;
56413;SDS011;42318;48.452;19.526;2023-11-21T07:58:08;4.07;;;2.70;;
56413;SDS011;42318;48.452;19.526;2023-11-21T08:01:09;5.03;;;3.20;;
56413;SDS011;42318;48.452;19.526;2023-11-21T08:04:10;5.03;;;3.15;;
56413;SDS011;42318;48.452;19.526;2023-11-21T08:07:11;4.95;;;3.50;;
56413;SDS011;42318;48.452;19.526;2023-11-21T08:10:11;5.55;;;3.70;;
56413;SDS011;42318;48.452;19.526;2023-11-21T08:13:12;4.82;;;3.10;;
56413;SDS011;42318;48.452;19.526;2023-11-21T08:16:15;4.95;;;2.90;;
56413;SDS011;42318;48.452;19.526;2023-11-21T08:19:17;5.43;;;3.22;;
56413;SDS011;42318;48.452;19.526;2023-11-21T08:22:18;8.57;;;3.53;;
56413;SDS011;42318;48.452;19.526;2023-11-21T08:25:19;5.43;;;3.60;;
56413;SDS011;42318;48.452;19.526;2023-11-21T08:28:20;5.05;;;3.30;;
56413;SDS011;42318;48.452;19.526;2023-11-21T08:31:24;5.00;;;3.60;;
56413;SDS011;42318;48.452;19.526;2023-11-21T08:34:26;6.22;;;3.33;;
56413;SDS011;42318;48.452;19.526;2023-11-21T08:37:26;6.10;;;3.60;;
56413;SDS011;42318;48.452;19.526;2023-11-21T08:40:27;8.00;;;3.80;;
56413;SDS011;42318;48.452;19.526;2023-11-21T08:43:28;6.93;;;3.67;;
56413;SDS011;42318;48.452;19.526;2023-11-21T08:46:29;5.60;;;3.80;;
56413;SDS011;42318;48.452;19.526;2023-11-21T08:49:29;6.82;;;3.72;;
56413;SDS011;42318;48.452;19.526;2023-11-21T08:52:30;5.53;;;3.53;;
56413;SDS011;42318;48.452;19.526;2023-11-21T08:55:31;5.18;;;3.80;;
56413;SDS011;42318;48.452;19.526;2023-11-21T08:58:31;6.43;;;4.05;;
56413;SDS011;42318;48.452;19.526;2023-11-21T09:01:37;6.95;;;4.38;;
56413;SDS011;42318;48.452;19.526;2023-11-21T09:04:37;6.28;;;4.22;;
56413;SDS011;42318;48.452;19.526;2023-11-21T09:07:38;5.93;;;4.38;;
56413;SDS011;42318;48.452;19.526;2023-11-21T09:10:41;7.03;;;4.22;;
56413;SDS011;42318;48.452;19.526;2023-11-21T09:13:43;10.63;;;4.55;;
56413;SDS011;42318;48.452;19.526;2023-11-21T09:16:44;6.60;;;4.88;;
56413;SDS011;42318;48.452;19.526;2023-11-21T09:19:44;7.43;;;4.45;;
56413;SDS011;42318;48.452;19.526;2023-11-21T09:22:51;9.55;;;4.57;;
56413;SDS011;42318;48.452;19.526;2023-11-21T09:25:52;5.90;;;4.32;;
56413;SDS011;42318;48.452;19.526;2023-11-21T09:28:58;59.03;;;6.13;;
56413;SDS011;42318;48.452;19.526;2023-11-21T09:31:58;11.63;;;4.30;;
56413;SDS011;42318;48.452;19.526;2023-11-21T09:34:59;7.55;;;4.07;;
56413;SDS011;42318;48.452;19.526;2023-11-21T09:38:02;8.82;;;5.80;;
56413;SDS011;42318;48.452;19.526;2023-11-21T09:41:06;14.73;;;5.50;;
56413;SDS011;42318;48.452;19.526;2023-11-21T09:44:44;10.10;;;5.10;;
56413;SDS011;42318;48.452;19.526;2023-11-21T09:48:04;7.28;;;4.50;;
56413;SDS011;42318;48.452;19.526;2023-11-21T09:51:06;7.97;;;4.15;;
56413;SDS011;42318;48.452;19.526;2023-11-21T09:54:09;8.55;;;4.43;;
56413;SDS011;42318;48.452;19.526;2023-11-21T09:57:11;6.05;;;4.20;;
56413;SDS011;42318;48.452;19.526;2023-11-21T10:00:12;9.02;;;4.97;;
56413;SDS011;42318;48.452;19.526;2023-11-21T10:03:17;7.53;;;4.28;;
56413;SDS011;42318;48.452;19.526;2023-11-21T10:06:18;6.30;;;4.35;;
56413;SDS011;42318;48.452;19.526;2023-11-21T10:09:19;9.25;;;5.10;;
56413;SDS011;42318;48.452;19.526;2023-11-21T10:12:21;7.75;;;4.80;;
56413;SDS011;42318;48.452;19.526;2023-11-21T10:15:24;6.05;;;3.80;;
56413;SDS011;42318;48.452;19.526;2023-11-21T10:18:27;9.73;;;4.13;;
56413;SDS011;42318;48.452;19.526;2023-11-21T10:21:28;8.15;;;4.72;;
56413;SDS011;42318;48.452;19.526;2023-11-21T10:24:30;8.35;;;5.03;;
56413;SDS011;42318;48.452;19.526;2023-11-21T10:27:30;11.82;;;4.38;;
56413;SDS011;42318;48.452;19.526;2023-11-21T10:30:35;10.52;;;4.55;;
56413;SDS011;42318;48.452;19.526;2023-11-21T10:33:37;7.85;;;4.93;;
56413;SDS011;42318;48.452;19.526;2023-11-21T10:36:37;7.93;;;4.57;;
56413;SDS011;42318;48.452;19.526;2023-11-21T10:39:38;7.95;;;4.72;;
56413;SDS011;42318;48.452;19.526;2023-11-21T10:42:40;12.13;;;4.80;;
56413;SDS011;42318;48.452;19.526;2023-11-21T10:45:42;8.25;;;5.60;;
56413;SDS011;42318;48.452;19.526;2023-11-21T10:48:43;8.65;;;4.75;;
56413;SDS011;42318;48.452;19.526;2023-11-21T10:51:44;10.10;;;4.65;;
56413;SDS011;42318;48.452;19.526;2023-11-21T10:54:45;7.68;;;4.90;;
56413;SDS011;42318;48.452;19.526;2023-11-21T10:57:46;10.27;;;5.00;;
56413;SDS011;42318;48.452;19.526;2023-11-21T11:00:49;6.95;;;4.80;;
56413;SDS011;42318;48.452;19.526;2023-11-21T11:03:52;7.45;;;5.35;;
56413;SDS011;42318;48.452;19.526;2023-11-21T11:06:56;7.95;;;5.22;;
56413;SDS011;42318;48.452;19.526;2023-11-21T11:10:02;10.02;;;5.45;;
56413;SDS011;42318;48.452;19.526;2023-11-21T11:13:04;8.75;;;5.20;;
56413;SDS011;42318;48.452;19.526;2023-11-21T11:16:07;8.85;;;5.07;;
56413;SDS011;42318;48.452;19.526;2023-11-21T11:19:11;6.30;;;4.82;;
56413;SDS011;42318;48.452;19.526;2023-11-21T11:22:19;7.50;;;5.35;;
56413;SDS011;42318;48.452;19.526;2023-11-21T11:28:52;8.82;;;5.60;;
56413;SDS011;42318;48.452;19.526;2023-11-21T11:32:16;13.45;;;5.28;;
56413;SDS011;42318;48.452;19.526;2023-11-21T11:38:52;7.63;;;4.65;;
56413;SDS011;42318;48.452;19.526;2023-11-21T11:41:52;8.90;;;5.28;;
56413;SDS011;42318;48.452;19.526;2023-11-21T11:44:53;7.50;;;5.25;;
56413;SDS011;42318;48.452;19.526;2023-11-21T11:47:57;8.03;;;5.33;;
56413;SDS011;42318;48.452;19.526;2023-11-21T11:51:01;6.95;;;4.93;;
56413;SDS011;42318;48.452;19.526;2023-11-21T11:54:05;6.10;;;5.28;;
56413;SDS011;42318;48.452;19.526;2023-11-21T11:57:08;7.55;;;5.60;;
56413;SDS011;42318;48.452;19.526;2023-11-21T12:00:20;8.27;;;5.50;;
56413;SDS011;42318;48.452;19.526;2023-11-21T12:03:21;7.68;;;4.78;;
56413;SDS011;42318;48.452;19.526;2023-11-21T12:06:30;7.40;;;5.07;;
56413;SDS011;42318;48.452;19.526;2023-11-21T12:09:33;8.45;;;5.55;;
56413;SDS011;42318;48.452;19.526;2023-11-21T12:12:35;9.90;;;5.65;;
56413;SDS011;42318;48.452;19.526;2023-11-21T12:15:36;8.80;;;5.45;;
56413;SDS011;42318;48.452;19.526;2023-11-21T12:18:37;7.57;;;5.28;;
56413;SDS011;42318;48.452;19.526;2023-11-21T12:21:38;9.05;;;5.30;;
56413;SDS011;42318;48.452;19.526;2023-11-21T12:24:42;7.93;;;5.20;;
56413;SDS011;42318;48.452;19.526;2023-11-21T12:27:48;6.85;;;4.75;;
56413;SDS011;42318;48.452;19.526;2023-11-21T12:30:52;9.18;;;4.88;;
56413;SDS011;42318;48.452;19.526;2023-11-21T12:33:53;8.05;;;5.28;;
56413;SDS011;42318;48.452;19.526;2023-11-21T12:36:53;7.22;;;4.78;;
56413;SDS011;42318;48.452;19.526;2023-11-21T12:39:55;6.82;;;5.20;;
56413;SDS011;42318;48.452;19.526;2023-11-21T12:42:58;9.63;;;5.20;;
56413;SDS011;42318;48.452;19.526;2023-11-21T12:46:05;7.18;;;5.32;;
56413;SDS011;42318;48.452;19.526;2023-11-21T12:49:07;7.63;;;5.18;;
56413;SDS011;42318;48.452;19.526;2023-11-21T12:52:08;8.32;;;6.00;;
56413;SDS011;42318;48.452;19.526;2023-11-21T12:55:08;12.32;;;5.32;;
56413;SDS011;42318;48.452;19.526;2023-11-21T12:58:10;7.63;;;5.35;;
56413;SDS011;42318;48.452;19.526;2023-11-21T13:01:13;8.05;;;6.03;;
56413;SDS011;42318;48.452;19.526;2023-11-21T13:04:18;8.48;;;5.20;;
56413;SDS011;42318;48.452;19.526;2023-11-21T13:07:19;8.48;;;5.25;;
56413;SDS011;42318;48.452;19.526;2023-11-21T13:10:24;6.95;;;5.32;;
56413;SDS011;42318;48.452;19.526;2023-11-21T13:13:29;8.90;;;5.38;;
56413;SDS011;42318;48.452;19.526;2023-11-21T13:16:30;8.63;;;4.95;;
56413;SDS011;42318;48.452;19.526;2023-11-21T13:19:31;6.45;;;4.90;;
56413;SDS011;42318;48.452;19.526;2023-11-21T13:22:32;9.20;;;5.13;;
56413;SDS011;42318;48.452;19.526;2023-11-21T13:25:33;9.57;;;6.35;;
56413;SDS011;42318;48.452;19.526;2023-11-21T13:28:35;8.25;;;5.45;;
56413;SDS011;42318;48.452;19.526;2023-11-21T13:31:37;6.80;;;5.45;;
56413;SDS011;42318;48.452;19.526;2023-11-21T13:34:39;9.25;;;5.28;;
56413;SDS011;42318;48.452;19.526;2023-11-21T13:37:44;9.35;;;5.75;;
56413;SDS011;42318;48.452;19.526;2023-11-21T13:40:50;9.65;;;6.05;;
56413;SDS011;42318;48.452;19.526;2023-11-21T13:43:53;7.75;;;5.13;;
56413;SDS011;42318;48.452;19.526;2023-11-21T13:47:03;8.07;;;5.38;;
56413;SDS011;42318;48.452;19.526;2023-11-21T13:50:06;7.60;;;5.25;;
56413;SDS011;42318;48.452;19.526;2023-11-21T13:53:17;7.32;;;5.10;;
56413;SDS011;42318;48.452;19.526;2023-11-21T13:56:23;8.32;;;5.00;;
56413;SDS011;42318;48.452;19.526;2023-11-21T13:59:24;9.20;;;5.18;;
56413;SDS011;42318;48.452;19.526;2023-11-21T14:02:28;8.23;;;4.82;;
56413;SDS011;42318;48.452;19.526;2023-11-21T14:05:35;13.25;;;5.32;;
56413;SDS011;42318;48.452;19.526;2023-11-21T14:08:35;7.88;;;5.43;;
56413;SDS011;42318;48.452;19.526;2023-11-21T14:11:36;10.80;;;5.97;;
56413;SDS011;42318;48.452;19.526;2023-11-21T14:14:38;9.27;;;5.72;;
56413;SDS011;42318;48.452;19.526;2023-11-21T14:17:39;8.00;;;4.95;;
56413;SDS011;42318;48.452;19.526;2023-11-21T14:20:42;7.78;;;5.20;;
56413;SDS011;42318;48.452;19.526;2023-11-21T14:23:43;10.23;;;4.97;;
56413;SDS011;42318;48.452;19.526;2023-11-21T14:26:46;10.43;;;5.80;;
56413;SDS011;42318;48.452;19.526;2023-11-21T14:29:47;10.32;;;5.25;;
56413;SDS011;42318;48.452;19.526;2023-11-21T14:32:48;7.88;;;5.03;;
56413;SDS011;42318;48.452;19.526;2023-11-21T14:35:49;7.43;;;4.80;;
56413;SDS011;42318;48.452;19.526;2023-11-21T14:38:50;10.57;;;5.13;;
56413;SDS011;42318;48.452;19.526;2023-11-21T14:41:51;8.68;;;4.78;;
56413;SDS011;42318;48.452;19.526;2023-11-21T14:44:53;7.63;;;5.30;;
56413;SDS011;42318;48.452;19.526;2023-11-21T14:47:58;7.30;;;5.28;;
56413;SDS011;42318;48.452;19.526;2023-11-21T14:51:06;9.15;;;5.30;;
56413;SDS011;42318;48.452;19.526;2023-11-21T14:54:06;7.28;;;5.30;;
56413;SDS011;42318;48.452;19.526;2023-11-21T14:57:08;11.13;;;5.30;;
56413;SDS011;42318;48.452;19.526;2023-11-21T15:00:19;11.38;;;5.38;;
56413;SDS011;42318;48.452;19.526;2023-11-21T15:03:35;8.95;;;5.43;;
56413;SDS011;42318;48.452;19.526;2023-11-21T15:06:49;8.60;;;4.95;;
56413;SDS011;42318;48.452;19.526;2023-11-21T15:09:51;6.72;;;5.53;;
56413;SDS011;42318;48.452;19.526;2023-11-21T15:12:54;11.15;;;5.88;;
56413;SDS011;42318;48.452;19.526;2023-11-21T15:15:54;7.20;;;5.35;;
56413;SDS011;42318;48.452;19.526;2023-11-21T15:18:55;8.00;;;5.82;;
56413;SDS011;42318;48.452;19.526;2023-11-21T15:21:55;8.32;;;4.57;;
56413;SDS011;42318;48.452;19.526;2023-11-21T15:24:56;6.82;;;4.97;;
56413;SDS011;42318;48.452;19.526;2023-11-21T15:27:57;8.13;;;5.32;;
56413;SDS011;42318;48.452;19.526;2023-11-21T15:30:58;7.97;;;5.05;;
56413;SDS011;42318;48.452;19.526;2023-11-21T15:33:59;11.00;;;4.68;;
56413;SDS011;42318;48.452;19.526;2023-11-21T15:37:00;6.53;;;4.97;;
56413;SDS011;42318;48.452;19.526;2023-11-21T15:40:01;7.25;;;5.18;;
56413;SDS011;42318;48.452;19.526;2023-11-21T15:43:06;11.80;;;4.93;;
56413;SDS011;42318;48.452;19.526;2023-11-21T15:46:07;8.85;;;4.90;;
56413;SDS011;42318;48.452;19.526;2023-11-21T15:49:09;8.25;;;4.70;;
56413;SDS011;42318;48.452;19.526;2023-11-21T15:52:13;8.70;;;4.60;;
56413;SDS011;42318;48.452;19.526;2023-11-21T15:55:14;6.85;;;4.82;;
56413;SDS011;42318;48.452;19.526;2023-11-21T15:58:14;7.60;;;4.65;;
56413;SDS011;42318;48.452;19.526;2023-11-21T16:01:15;7.85;;;4.95;;
56413;SDS011;42318;48.452;19.526;2023-11-21T16:04:16;7.15;;;4.68;;
56413;SDS011;42318;48.452;19.526;2023-11-21T16:07:22;12.38;;;5.35;;
56413;SDS011;42318;48.452;19.526;2023-11-21T16:10:22;7.00;;;4.60;;
56413;SDS011;42318;48.452;19.526;2023-11-21T16:13:23;7.55;;;4.25;;
56413;SDS011;42318;48.452;19.526;2023-11-21T16:16:24;8.70;;;4.95;;
56413;SDS011;42318;48.452;19.526;2023-11-21T16:19:25;8.20;;;4.95;;
56413;SDS011;42318;48.452;19.526;2023-11-21T16:22:25;7.35;;;5.13;;
56413;SDS011;42318;48.452;19.526;2023-11-21T16:25:29;10.95;;;4.72;;
56413;SDS011;42318;48.452;19.526;2023-11-21T16:28:29;8.35;;;4.50;;
56413;SDS011;42318;48.452;19.526;2023-11-21T16:31:30;6.45;;;4.45;;
56413;SDS011;42318;48.452;19.526;2023-11-21T16:34:33;11.40;;;5.43;;
56413;SDS011;42318;48.452;19.526;2023-11-21T16:37:35;7.38;;;5.20;;
56413;SDS011;42318;48.452;19.526;2023-11-21T16:40:36;8.30;;;4.88;;
56413;SDS011;42318;48.452;19.526;2023-11-21T16:43:37;5.65;;;4.22;;
56413;SDS011;42318;48.452;19.526;2023-11-21T16:46:37;6.85;;;4.65;;
56413;SDS011;42318;48.452;19.526;2023-11-21T16:49:38;7.70;;;4.78;;
56413;SDS011;42318;48.452;19.526;2023-11-21T16:52:40;8.07;;;4.60;;
56413;SDS011;42318;48.452;19.526;2023-11-21T16:55:41;7.05;;;4.80;;
56413;SDS011;42318;48.452;19.526;2023-11-21T16:58:42;8.25;;;5.30;;
56413;SDS011;42318;48.452;19.526;2023-11-21T17:01:43;6.35;;;4.80;;
56413;SDS011;42318;48.452;19.526;2023-11-21T17:04:47;7.40;;;5.20;;
56413;SDS011;42318;48.452;19.526;2023-11-21T17:07:49;9.43;;;4.93;;
56413;SDS011;42318;48.452;19.526;2023-11-21T17:10:50;9.20;;;5.15;;
56413;SDS011;42318;48.452;19.526;2023-11-21T17:13:51;7.90;;;5.15;;
56413;SDS011;42318;48.452;19.526;2023-11-21T17:16:52;6.72;;;4.93;;
56413;SDS011;42318;48.452;19.526;2023-11-21T17:19:52;9.80;;;5.07;;
56413;SDS011;42318;48.452;19.526;2023-11-21T17:22:53;8.32;;;6.35;;
56413;SDS011;42318;48.452;19.526;2023-11-21T17:25:56;8.40;;;5.07;;
56413;SDS011;42318;48.452;19.526;2023-11-21T17:28:56;7.78;;;5.18;;
56413;SDS011;42318;48.452;19.526;2023-11-21T17:31:58;9.85;;;5.32;;
56413;SDS011;42318;48.452;19.526;2023-11-21T17:34:59;7.18;;;5.32;;
56413;SDS011;42318;48.452;19.526;2023-11-21T17:38:00;9.93;;;4.88;;
56413;SDS011;42318;48.452;19.526;2023-11-21T17:41:01;6.43;;;5.18;;
56413;SDS011;42318;48.452;19.526;2023-11-21T17:44:02;14.02;;;6.57;;
56413;SDS011;42318;48.452;19.526;2023-11-21T17:47:07;10.65;;;6.07;;
56413;SDS011;42318;48.452;19.526;2023-11-21T17:50:10;9.63;;;5.10;;
56413;SDS011;42318;48.452;19.526;2023-11-21T17:53:10;9.98;;;5.22;;
56413;SDS011;42318;48.452;19.526;2023-11-21T17:56:15;7.15;;;5.28;;
56413;SDS011;42318;48.452;19.526;2023-11-21T17:59:16;12.05;;;5.82;;
56413;SDS011;42318;48.452;19.526;2023-11-21T18:02:17;10.32;;;5.70;;
56413;SDS011;42318;48.452;19.526;2023-11-21T18:05:18;7.63;;;5.60;;